< < Back
Terminal Aerodrome Forecast


Current Version              Previous Versions:   1  2  3  4  5  6  7  8  9  

Terminal Aerodrome Forecast

003
FTUS44 KBMX 291114 AAA
TAFANB
TAF AMD
KANB 291114Z 2911/3006 05004KT P6SM SCT017 OVC150
      TEMPO 2912/2915 5SM -SHRA BR BKN017 OVC150
     FM291500 13006KT 6SM -SHRA VCTS BKN035CB
     FM300000 08002KT P6SM -SHRA VCTS OVC045CB=

Latest METAR

917
SAUS70 KWBC 300300 RRL
MTRANB
METAR KANB 300253Z AUTO 10003KT 10SM SCT095 22/21 A3013 RMK AO2 SLP195
T02170206 51002


USA.gov is the U.S. government's official web portal to all federal, state and local government web resources and services.